sensor_id;sensor_type;location;lat;lon;timestamp;P1;durP1;ratioP1;P2;durP2;ratioP2
1601;SDS011;794;48.592;9.634;2023-06-14T00:00:45;4.33;;;3.57;;
1601;SDS011;794;48.592;9.634;2023-06-14T00:03:13;4.57;;;3.67;;
1601;SDS011;794;48.592;9.634;2023-06-14T00:05:42;6.50;;;4.00;;
1601;SDS011;794;48.592;9.634;2023-06-14T00:08:11;4.33;;;3.90;;
1601;SDS011;794;48.592;9.634;2023-06-14T00:10:39;4.10;;;3.70;;
1601;SDS011;794;48.592;9.634;2023-06-14T00:13:07;4.80;;;4.20;;
1601;SDS011;794;48.592;9.634;2023-06-14T00:15:34;5.50;;;4.23;;
1601;SDS011;794;48.592;9.634;2023-06-14T00:18:01;4.40;;;4.00;;
1601;SDS011;794;48.592;9.634;2023-06-14T00:20:29;5.50;;;3.77;;
1601;SDS011;794;48.592;9.634;2023-06-14T00:22:57;3.23;;;3.03;;
1601;SDS011;794;48.592;9.634;2023-06-14T00:25:25;4.27;;;3.40;;
1601;SDS011;794;48.592;9.634;2023-06-14T00:27:54;3.87;;;3.57;;
1601;SDS011;794;48.592;9.634;2023-06-14T00:30:21;4.13;;;3.37;;
1601;SDS011;794;48.592;9.634;2023-06-14T00:32:48;3.40;;;3.10;;
1601;SDS011;794;48.592;9.634;2023-06-14T00:35:16;3.57;;;3.27;;
1601;SDS011;794;48.592;9.634;2023-06-14T00:37:43;3.80;;;3.50;;
1601;SDS011;794;48.592;9.634;2023-06-14T00:40:10;3.40;;;3.10;;
1601;SDS011;794;48.592;9.634;2023-06-14T00:42:37;6.10;;;4.10;;
1601;SDS011;794;48.592;9.634;2023-06-14T00:45:06;5.90;;;3.90;;
1601;SDS011;794;48.592;9.634;2023-06-14T00:47:34;6.07;;;4.20;;
1601;SDS011;794;48.592;9.634;2023-06-14T00:50:03;5.20;;;3.30;;
1601;SDS011;794;48.592;9.634;2023-06-14T00:52:33;4.53;;;3.43;;
1601;SDS011;794;48.592;9.634;2023-06-14T00:55:00;4.07;;;3.67;;
1601;SDS011;794;48.592;9.634;2023-06-14T00:57:28;4.20;;;3.67;;
1601;SDS011;794;48.592;9.634;2023-06-14T00:59:55;5.10;;;4.07;;
1601;SDS011;794;48.592;9.634;2023-06-14T01:02:23;5.90;;;4.20;;
1601;SDS011;794;48.592;9.634;2023-06-14T01:04:50;4.47;;;3.70;;
1601;SDS011;794;48.592;9.634;2023-06-14T01:07:21;4.73;;;4.20;;
1601;SDS011;794;48.592;9.634;2023-06-14T01:10:04;4.13;;;3.73;;
1601;SDS011;794;48.592;9.634;2023-06-14T01:12:44;5.57;;;3.67;;
1601;SDS011;794;48.592;9.634;2023-06-14T01:15:22;6.60;;;3.53;;
1601;SDS011;794;48.592;9.634;2023-06-14T01:17:51;3.90;;;3.60;;
1601;SDS011;794;48.592;9.634;2023-06-14T01:20:19;5.40;;;4.60;;
1601;SDS011;794;48.592;9.634;2023-06-14T01:22:51;4.50;;;4.10;;
1601;SDS011;794;48.592;9.634;2023-06-14T01:25:19;6.37;;;4.37;;
1601;SDS011;794;48.592;9.634;2023-06-14T01:27:48;5.27;;;4.77;;
1601;SDS011;794;48.592;9.634;2023-06-14T01:30:15;5.03;;;4.10;;
1601;SDS011;794;48.592;9.634;2023-06-14T01:32:44;3.50;;;3.20;;
1601;SDS011;794;48.592;9.634;2023-06-14T01:35:11;8.03;;;3.67;;
1601;SDS011;794;48.592;9.634;2023-06-14T01:37:39;6.40;;;3.40;;
1601;SDS011;794;48.592;9.634;2023-06-14T01:40:08;4.93;;;4.00;;
1601;SDS011;794;48.592;9.634;2023-06-14T01:42:37;4.40;;;4.00;;
1601;SDS011;794;48.592;9.634;2023-06-14T01:45:05;3.83;;;3.53;;
1601;SDS011;794;48.592;9.634;2023-06-14T01:47:33;4.47;;;3.67;;
1601;SDS011;794;48.592;9.634;2023-06-14T01:50:01;4.67;;;3.80;;
1601;SDS011;794;48.592;9.634;2023-06-14T01:52:28;4.30;;;3.90;;
1601;SDS011;794;48.592;9.634;2023-06-14T01:54:55;6.00;;;3.57;;
1601;SDS011;794;48.592;9.634;2023-06-14T01:57:24;5.33;;;3.93;;
1601;SDS011;794;48.592;9.634;2023-06-14T01:59:52;4.07;;;3.67;;
1601;SDS011;794;48.592;9.634;2023-06-14T02:02:19;6.67;;;4.07;;
1601;SDS011;794;48.592;9.634;2023-06-14T02:04:46;3.80;;;3.50;;
1601;SDS011;794;48.592;9.634;2023-06-14T02:07:13;4.20;;;3.80;;
1601;SDS011;794;48.592;9.634;2023-06-14T02:09:40;7.00;;;5.30;;
1601;SDS011;794;48.592;9.634;2023-06-14T02:12:08;4.10;;;3.70;;
1601;SDS011;794;48.592;9.634;2023-06-14T02:14:37;4.03;;;3.60;;
1601;SDS011;794;48.592;9.634;2023-06-14T02:17:04;5.97;;;3.93;;
1601;SDS011;794;48.592;9.634;2023-06-14T02:19:31;6.63;;;4.40;;
1601;SDS011;794;48.592;9.634;2023-06-14T02:21:58;3.83;;;3.50;;
1601;SDS011;794;48.592;9.634;2023-06-14T02:24:40;5.13;;;4.37;;
1601;SDS011;794;48.592;9.634;2023-06-14T02:27:07;4.50;;;4.10;;
1601;SDS011;794;48.592;9.634;2023-06-14T02:29:36;5.57;;;4.37;;
1601;SDS011;794;48.592;9.634;2023-06-14T02:32:03;4.93;;;4.43;;
1601;SDS011;794;48.592;9.634;2023-06-14T02:34:32;5.03;;;3.83;;
1601;SDS011;794;48.592;9.634;2023-06-14T02:36:59;3.87;;;3.50;;
1601;SDS011;794;48.592;9.634;2023-06-14T02:39:27;4.20;;;3.80;;
1601;SDS011;794;48.592;9.634;2023-06-14T02:41:54;6.70;;;3.77;;
1601;SDS011;794;48.592;9.634;2023-06-14T02:44:23;4.70;;;4.27;;
1601;SDS011;794;48.592;9.634;2023-06-14T02:46:53;4.07;;;3.67;;
1601;SDS011;794;48.592;9.634;2023-06-14T02:49:20;4.20;;;3.80;;
1601;SDS011;794;48.592;9.634;2023-06-14T02:51:47;6.40;;;4.20;;
1601;SDS011;794;48.592;9.634;2023-06-14T02:54:14;4.50;;;4.10;;
1601;SDS011;794;48.592;9.634;2023-06-14T02:56:41;4.03;;;3.47;;
1601;SDS011;794;48.592;9.634;2023-06-14T02:59:08;4.30;;;4.00;;
1601;SDS011;794;48.592;9.634;2023-06-14T03:01:35;4.80;;;4.40;;
1601;SDS011;794;48.592;9.634;2023-06-14T03:04:07;4.73;;;4.10;;
1601;SDS011;794;48.592;9.634;2023-06-14T03:06:34;6.80;;;4.53;;
1601;SDS011;794;48.592;9.634;2023-06-14T03:09:01;7.83;;;5.07;;
1601;SDS011;794;48.592;9.634;2023-06-14T03:11:30;4.60;;;4.17;;
1601;SDS011;794;48.592;9.634;2023-06-14T03:13:57;23.37;;;14.77;;
1601;SDS011;794;48.592;9.634;2023-06-14T03:16:24;28.57;;;19.03;;
1601;SDS011;794;48.592;9.634;2023-06-14T03:18:53;47.60;;;28.37;;
1601;SDS011;794;48.592;9.634;2023-06-14T03:21:22;47.60;;;28.77;;
1601;SDS011;794;48.592;9.634;2023-06-14T03:23:50;22.37;;;12.50;;
1601;SDS011;794;48.592;9.634;2023-06-14T03:26:18;11.50;;;7.30;;
1601;SDS011;794;48.592;9.634;2023-06-14T03:28:45;8.30;;;6.17;;
1601;SDS011;794;48.592;9.634;2023-06-14T03:31:12;5.70;;;4.90;;
1601;SDS011;794;48.592;9.634;2023-06-14T03:33:39;11.77;;;6.53;;
1601;SDS011;794;48.592;9.634;2023-06-14T03:36:06;10.37;;;7.17;;
1601;SDS011;794;48.592;9.634;2023-06-14T03:38:34;6.67;;;5.17;;
1601;SDS011;794;48.592;9.634;2023-06-14T03:41:01;5.57;;;4.80;;
1601;SDS011;794;48.592;9.634;2023-06-14T03:43:28;5.30;;;4.80;;
1601;SDS011;794;48.592;9.634;2023-06-14T03:45:56;5.53;;;4.03;;
1601;SDS011;794;48.592;9.634;2023-06-14T03:48:23;5.93;;;4.87;;
1601;SDS011;794;48.592;9.634;2023-06-14T03:50:50;5.47;;;4.50;;
1601;SDS011;794;48.592;9.634;2023-06-14T03:53:17;6.57;;;4.60;;
1601;SDS011;794;48.592;9.634;2023-06-14T03:55:47;5.83;;;4.13;;
1601;SDS011;794;48.592;9.634;2023-06-14T03:58:14;4.77;;;4.37;;
1601;SDS011;794;48.592;9.634;2023-06-14T04:00:41;4.63;;;3.40;;
1601;SDS011;794;48.592;9.634;2023-06-14T04:03:08;4.27;;;3.87;;
1601;SDS011;794;48.592;9.634;2023-06-14T04:05:35;4.30;;;3.90;;
1601;SDS011;794;48.592;9.634;2023-06-14T04:08:02;4.83;;;3.60;;
1601;SDS011;794;48.592;9.634;2023-06-14T04:10:34;4.90;;;4.13;;
1601;SDS011;794;48.592;9.634;2023-06-14T04:13:02;4.80;;;4.30;;
1601;SDS011;794;48.592;9.634;2023-06-14T04:15:29;4.60;;;4.20;;
1601;SDS011;794;48.592;9.634;2023-06-14T04:17:56;5.23;;;3.80;;
1601;SDS011;794;48.592;9.634;2023-06-14T04:20:23;5.00;;;4.37;;
1601;SDS011;794;48.592;9.634;2023-06-14T04:22:50;5.33;;;4.67;;
1601;SDS011;794;48.592;9.634;2023-06-14T04:25:17;5.53;;;5.03;;
1601;SDS011;794;48.592;9.634;2023-06-14T04:27:45;4.40;;;4.00;;
1601;SDS011;794;48.592;9.634;2023-06-14T04:30:14;4.40;;;4.00;;
1601;SDS011;794;48.592;9.634;2023-06-14T04:32:41;6.23;;;4.00;;
1601;SDS011;794;48.592;9.634;2023-06-14T04:35:09;5.00;;;4.00;;
1601;SDS011;794;48.592;9.634;2023-06-14T04:37:36;4.93;;;3.60;;
1601;SDS011;794;48.592;9.634;2023-06-14T04:40:09;7.87;;;3.50;;
1601;SDS011;794;48.592;9.634;2023-06-14T04:42:36;3.87;;;3.43;;
1601;SDS011;794;48.592;9.634;2023-06-14T04:45:03;3.37;;;3.07;;
1601;SDS011;794;48.592;9.634;2023-06-14T04:47:33;3.60;;;3.30;;
1601;SDS011;794;48.592;9.634;2023-06-14T04:50:03;6.93;;;4.60;;
1601;SDS011;794;48.592;9.634;2023-06-14T04:52:33;4.30;;;3.90;;
1601;SDS011;794;48.592;9.634;2023-06-14T04:55:00;4.80;;;4.40;;
1601;SDS011;794;48.592;9.634;2023-06-14T04:57:27;4.23;;;3.83;;
1601;SDS011;794;48.592;9.634;2023-06-14T04:59:55;3.50;;;2.80;;
1601;SDS011;794;48.592;9.634;2023-06-14T05:02:22;5.43;;;3.40;;
1601;SDS011;794;48.592;9.634;2023-06-14T05:04:52;3.83;;;3.37;;
1601;SDS011;794;48.592;9.634;2023-06-14T05:07:22;3.83;;;3.43;;
1601;SDS011;794;48.592;9.634;2023-06-14T05:09:49;4.37;;;3.97;;
1601;SDS011;794;48.592;9.634;2023-06-14T05:12:15;9.53;;;4.10;;
1601;SDS011;794;48.592;9.634;2023-06-14T05:14:43;6.33;;;3.87;;
1601;SDS011;794;48.592;9.634;2023-06-14T05:17:10;4.50;;;4.10;;
1601;SDS011;794;48.592;9.634;2023-06-14T05:19:37;7.13;;;3.77;;
1601;SDS011;794;48.592;9.634;2023-06-14T05:22:06;4.80;;;3.50;;
1601;SDS011;794;48.592;9.634;2023-06-14T05:24:33;8.80;;;3.53;;
1601;SDS011;794;48.592;9.634;2023-06-14T05:27:00;5.80;;;3.97;;
1601;SDS011;794;48.592;9.634;2023-06-14T05:29:27;6.30;;;4.20;;
1601;SDS011;794;48.592;9.634;2023-06-14T05:31:54;5.63;;;4.47;;
1601;SDS011;794;48.592;9.634;2023-06-14T05:34:20;7.70;;;4.37;;
1601;SDS011;794;48.592;9.634;2023-06-14T05:36:47;4.10;;;3.70;;
1601;SDS011;794;48.592;9.634;2023-06-14T05:39:16;5.10;;;4.07;;
1601;SDS011;794;48.592;9.634;2023-06-14T05:41:42;4.70;;;4.30;;
1601;SDS011;794;48.592;9.634;2023-06-14T05:44:11;9.30;;;4.17;;
1601;SDS011;794;48.592;9.634;2023-06-14T05:46:38;4.67;;;4.27;;
1601;SDS011;794;48.592;9.634;2023-06-14T05:49:05;4.80;;;4.30;;
1601;SDS011;794;48.592;9.634;2023-06-14T05:51:32;3.90;;;3.50;;
1601;SDS011;794;48.592;9.634;2023-06-14T05:53:59;5.37;;;4.87;;
1601;SDS011;794;48.592;9.634;2023-06-14T05:56:27;7.43;;;4.90;;
1601;SDS011;794;48.592;9.634;2023-06-14T05:58:54;5.30;;;4.80;;
1601;SDS011;794;48.592;9.634;2023-06-14T06:01:21;8.87;;;4.13;;
1601;SDS011;794;48.592;9.634;2023-06-14T06:03:48;4.57;;;4.23;;
1601;SDS011;794;48.592;9.634;2023-06-14T06:06:15;5.43;;;4.47;;
1601;SDS011;794;48.592;9.634;2023-06-14T06:08:42;4.03;;;3.63;;
1601;SDS011;794;48.592;9.634;2023-06-14T06:11:09;6.03;;;4.23;;
1601;SDS011;794;48.592;9.634;2023-06-14T06:13:38;4.13;;;3.77;;
1601;SDS011;794;48.592;9.634;2023-06-14T06:16:05;4.93;;;4.53;;
1601;SDS011;794;48.592;9.634;2023-06-14T06:18:32;4.63;;;4.23;;
1601;SDS011;794;48.592;9.634;2023-06-14T06:20:59;7.33;;;4.90;;
1601;SDS011;794;48.592;9.634;2023-06-14T06:23:28;5.70;;;4.53;;
1601;SDS011;794;48.592;9.634;2023-06-14T06:25:55;5.80;;;4.57;;
1601;SDS011;794;48.592;9.634;2023-06-14T06:28:21;6.30;;;4.50;;
1601;SDS011;794;48.592;9.634;2023-06-14T06:30:49;5.40;;;4.90;;
1601;SDS011;794;48.592;9.634;2023-06-14T06:33:16;4.90;;;4.40;;
1601;SDS011;794;48.592;9.634;2023-06-14T06:35:43;7.50;;;4.57;;
1601;SDS011;794;48.592;9.634;2023-06-14T06:38:10;4.03;;;3.63;;
1601;SDS011;794;48.592;9.634;2023-06-14T06:40:37;4.93;;;4.43;;
1601;SDS011;794;48.592;9.634;2023-06-14T06:43:04;4.83;;;3.80;;
1601;SDS011;794;48.592;9.634;2023-06-14T06:45:31;4.50;;;4.10;;
1601;SDS011;794;48.592;9.634;2023-06-14T06:47:59;4.27;;;3.90;;
1601;SDS011;794;48.592;9.634;2023-06-14T06:50:26;5.90;;;4.50;;
1601;SDS011;794;48.592;9.634;2023-06-14T06:52:53;6.10;;;4.60;;
1601;SDS011;794;48.592;9.634;2023-06-14T06:55:20;4.80;;;3.90;;
1601;SDS011;794;48.592;9.634;2023-06-14T06:57:47;4.90;;;4.40;;
1601;SDS011;794;48.592;9.634;2023-06-14T07:00:15;5.40;;;4.10;;
1601;SDS011;794;48.592;9.634;2023-06-14T07:02:42;5.03;;;4.47;;
1601;SDS011;794;48.592;9.634;2023-06-14T07:05:11;4.77;;;3.90;;
1601;SDS011;794;48.592;9.634;2023-06-14T07:07:38;5.83;;;3.63;;
1601;SDS011;794;48.592;9.634;2023-06-14T07:10:05;4.87;;;3.47;;
1601;SDS011;794;48.592;9.634;2023-06-14T07:12:33;6.13;;;3.83;;
1601;SDS011;794;48.592;9.634;2023-06-14T07:15:04;4.27;;;3.97;;
1601;SDS011;794;48.592;9.634;2023-06-14T07:17:32;4.50;;;4.10;;
1601;SDS011;794;48.592;9.634;2023-06-14T07:20:00;4.37;;;3.97;;
1601;SDS011;794;48.592;9.634;2023-06-14T07:22:39;5.63;;;3.20;;
1601;SDS011;794;48.592;9.634;2023-06-14T07:25:10;4.60;;;3.83;;
1601;SDS011;794;48.592;9.634;2023-06-14T07:27:39;4.17;;;3.43;;
1601;SDS011;794;48.592;9.634;2023-06-14T07:30:06;5.67;;;3.80;;
1601;SDS011;794;48.592;9.634;2023-06-14T07:32:34;5.10;;;3.77;;
1601;SDS011;794;48.592;9.634;2023-06-14T07:35:01;4.83;;;3.77;;
1601;SDS011;794;48.592;9.634;2023-06-14T07:37:28;3.60;;;3.20;;
1601;SDS011;794;48.592;9.634;2023-06-14T07:42:46;3.30;;;3.00;;
1601;SDS011;794;48.592;9.634;2023-06-14T07:45:14;3.80;;;3.40;;
1601;SDS011;794;48.592;9.634;2023-06-14T07:47:42;3.83;;;3.53;;
1601;SDS011;794;48.592;9.634;2023-06-14T07:50:09;3.90;;;3.50;;
1601;SDS011;794;48.592;9.634;2023-06-14T07:52:36;4.70;;;3.93;;
1601;SDS011;794;48.592;9.634;2023-06-14T07:55:03;4.37;;;3.63;;
1601;SDS011;794;48.592;9.634;2023-06-14T07:57:32;4.90;;;4.50;;
1601;SDS011;794;48.592;9.634;2023-06-14T08:00:00;4.97;;;4.20;;
1601;SDS011;794;48.592;9.634;2023-06-14T08:02:27;6.90;;;4.83;;
1601;SDS011;794;48.592;9.634;2023-06-14T08:04:54;5.57;;;3.13;;
1601;SDS011;794;48.592;9.634;2023-06-14T08:07:20;6.57;;;3.70;;
1601;SDS011;794;48.592;9.634;2023-06-14T08:09:47;5.80;;;3.80;;
1601;SDS011;794;48.592;9.634;2023-06-14T08:12:15;11.63;;;4.10;;
1601;SDS011;794;48.592;9.634;2023-06-14T08:14:44;5.13;;;3.47;;
1601;SDS011;794;48.592;9.634;2023-06-14T08:17:11;3.83;;;3.50;;
1601;SDS011;794;48.592;9.634;2023-06-14T08:19:38;5.40;;;3.43;;
1601;SDS011;794;48.592;9.634;2023-06-14T08:22:06;6.93;;;4.50;;
1601;SDS011;794;48.592;9.634;2023-06-14T08:24:33;10.33;;;4.07;;
1601;SDS011;794;48.592;9.634;2023-06-14T08:26:59;5.07;;;3.80;;
1601;SDS011;794;48.592;9.634;2023-06-14T08:29:27;4.80;;;3.80;;
1601;SDS011;794;48.592;9.634;2023-06-14T08:31:57;5.47;;;4.00;;
1601;SDS011;794;48.592;9.634;2023-06-14T08:34:24;5.70;;;4.23;;
1601;SDS011;794;48.592;9.634;2023-06-14T08:36:51;4.10;;;3.70;;
1601;SDS011;794;48.592;9.634;2023-06-14T08:39:18;5.53;;;4.03;;
1601;SDS011;794;48.592;9.634;2023-06-14T08:41:46;5.87;;;4.07;;
1601;SDS011;794;48.592;9.634;2023-06-14T08:44:13;3.60;;;3.30;;
1601;SDS011;794;48.592;9.634;2023-06-14T08:46:41;9.87;;;4.00;;
1601;SDS011;794;48.592;9.634;2023-06-14T08:49:10;6.63;;;3.50;;
1601;SDS011;794;48.592;9.634;2023-06-14T08:51:39;4.90;;;4.17;;
1601;SDS011;794;48.592;9.634;2023-06-14T08:54:06;5.13;;;4.10;;
1601;SDS011;794;48.592;9.634;2023-06-14T08:56:33;5.90;;;4.43;;
1601;SDS011;794;48.592;9.634;2023-06-14T08:59:03;10.37;;;4.37;;
1601;SDS011;794;48.592;9.634;2023-06-14T09:01:33;6.63;;;3.93;;
1601;SDS011;794;48.592;9.634;2023-06-14T09:04:01;4.20;;;3.80;;
1601;SDS011;794;48.592;9.634;2023-06-14T09:06:31;4.70;;;4.30;;
1601;SDS011;794;48.592;9.634;2023-06-14T09:08:59;5.90;;;4.10;;
1601;SDS011;794;48.592;9.634;2023-06-14T09:11:26;10.47;;;4.30;;
1601;SDS011;794;48.592;9.634;2023-06-14T09:13:53;8.00;;;5.00;;
1601;SDS011;794;48.592;9.634;2023-06-14T09:16:20;4.87;;;4.20;;
1601;SDS011;794;48.592;9.634;2023-06-14T09:18:47;7.43;;;4.80;;
1601;SDS011;794;48.592;9.634;2023-06-14T09:21:14;7.80;;;4.50;;
1601;SDS011;794;48.592;9.634;2023-06-14T09:23:44;4.80;;;4.10;;
1601;SDS011;794;48.592;9.634;2023-06-14T09:26:12;4.27;;;3.90;;
1601;SDS011;794;48.592;9.634;2023-06-14T09:28:41;5.90;;;5.30;;
1601;SDS011;794;48.592;9.634;2023-06-14T09:31:09;5.00;;;3.97;;
1601;SDS011;794;48.592;9.634;2023-06-14T09:33:36;10.17;;;4.10;;
1601;SDS011;794;48.592;9.634;2023-06-14T09:36:03;5.70;;;4.23;;
1601;SDS011;794;48.592;9.634;2023-06-14T09:38:35;4.43;;;3.90;;
1601;SDS011;794;48.592;9.634;2023-06-14T09:41:03;4.60;;;4.07;;
1601;SDS011;794;48.592;9.634;2023-06-14T09:43:31;8.00;;;4.43;;
1601;SDS011;794;48.592;9.634;2023-06-14T09:45:59;7.03;;;4.50;;
1601;SDS011;794;48.592;9.634;2023-06-14T09:48:26;4.17;;;3.77;;
1601;SDS011;794;48.592;9.634;2023-06-14T09:50:53;5.37;;;4.00;;
1601;SDS011;794;48.592;9.634;2023-06-14T09:53:24;8.37;;;4.30;;
1601;SDS011;794;48.592;9.634;2023-06-14T09:55:52;4.87;;;4.10;;
1601;SDS011;794;48.592;9.634;2023-06-14T09:58:22;9.40;;;5.23;;
1601;SDS011;794;48.592;9.634;2023-06-14T10:00:54;5.93;;;4.40;;
1601;SDS011;794;48.592;9.634;2023-06-14T10:03:24;4.37;;;3.97;;
1601;SDS011;794;48.592;9.634;2023-06-14T10:05:54;6.37;;;4.00;;
1601;SDS011;794;48.592;9.634;2023-06-14T10:08:27;6.50;;;4.97;;
1601;SDS011;794;48.592;9.634;2023-06-14T10:10:58;4.70;;;4.30;;
1601;SDS011;794;48.592;9.634;2023-06-14T10:13:27;7.20;;;5.07;;
1601;SDS011;794;48.592;9.634;2023-06-14T10:15:58;6.37;;;5.83;;
1601;SDS011;794;48.592;9.634;2023-06-14T10:18:44;5.53;;;5.03;;
1601;SDS011;794;48.592;9.634;2023-06-14T10:21:16;6.93;;;4.40;;
1601;SDS011;794;48.592;9.634;2023-06-14T10:23:48;4.37;;;3.80;;
1601;SDS011;794;48.592;9.634;2023-06-14T10:26:20;6.77;;;3.80;;
1601;SDS011;794;48.592;9.634;2023-06-14T10:28:58;9.73;;;4.13;;
1601;SDS011;794;48.592;9.634;2023-06-14T10:31:42;4.17;;;3.77;;
1601;SDS011;794;48.592;9.634;2023-06-14T10:34:10;4.50;;;4.10;;
1601;SDS011;794;48.592;9.634;2023-06-14T10:36:37;5.67;;;5.13;;
1601;SDS011;794;48.592;9.634;2023-06-14T10:39:11;5.30;;;4.20;;
1601;SDS011;794;48.592;9.634;2023-06-14T10:41:42;5.50;;;4.80;;
1601;SDS011;794;48.592;9.634;2023-06-14T10:44:32;5.87;;;4.20;;
1601;SDS011;794;48.592;9.634;2023-06-14T10:47:06;5.47;;;4.80;;
1601;SDS011;794;48.592;9.634;2023-06-14T10:49:38;7.40;;;5.23;;
1601;SDS011;794;48.592;9.634;2023-06-14T10:52:14;4.87;;;4.47;;
1601;SDS011;794;48.592;9.634;2023-06-14T10:57:41;5.90;;;5.30;;
1601;SDS011;794;48.592;9.634;2023-06-14T11:00:10;4.60;;;4.20;;
1601;SDS011;794;48.592;9.634;2023-06-14T11:05:48;4.80;;;4.30;;
1601;SDS011;794;48.592;9.634;2023-06-14T11:11:16;6.10;;;5.50;;
1601;SDS011;794;48.592;9.634;2023-06-14T11:13:44;5.17;;;4.53;;
1601;SDS011;794;48.592;9.634;2023-06-14T11:16:13;7.23;;;5.40;;
1601;SDS011;794;48.592;9.634;2023-06-14T11:18:42;5.67;;;4.37;;
1601;SDS011;794;48.592;9.634;2023-06-14T11:21:10;5.40;;;4.83;;
1601;SDS011;794;48.592;9.634;2023-06-14T11:23:36;5.90;;;4.63;;
1601;SDS011;794;48.592;9.634;2023-06-14T11:26:04;5.80;;;5.23;;
1601;SDS011;794;48.592;9.634;2023-06-14T11:28:38;4.33;;;4.03;;
1601;SDS011;794;48.592;9.634;2023-06-14T11:31:06;10.47;;;4.47;;
1601;SDS011;794;48.592;9.634;2023-06-14T11:33:35;6.90;;;5.03;;
1601;SDS011;794;48.592;9.634;2023-06-14T11:36:02;4.57;;;4.17;;
1601;SDS011;794;48.592;9.634;2023-06-14T11:38:30;5.87;;;5.33;;
1601;SDS011;794;48.592;9.634;2023-06-14T11:41:00;6.80;;;4.23;;
1601;SDS011;794;48.592;9.634;2023-06-14T11:43:27;6.80;;;4.40;;
1601;SDS011;794;48.592;9.634;2023-06-14T11:45:54;8.53;;;4.53;;
1601;SDS011;794;48.592;9.634;2023-06-14T11:48:21;5.93;;;4.70;;
1601;SDS011;794;48.592;9.634;2023-06-14T11:50:50;10.33;;;4.80;;
1601;SDS011;794;48.592;9.634;2023-06-14T11:53:17;9.63;;;5.47;;
1601;SDS011;794;48.592;9.634;2023-06-14T11:55:44;4.40;;;4.00;;
1601;SDS011;794;48.592;9.634;2023-06-14T11:58:12;6.87;;;4.30;;
1601;SDS011;794;48.592;9.634;2023-06-14T12:00:40;8.60;;;4.63;;
1601;SDS011;794;48.592;9.634;2023-06-14T12:03:08;8.63;;;4.33;;
1601;SDS011;794;48.592;9.634;2023-06-14T12:05:35;5.23;;;4.73;;
1601;SDS011;794;48.592;9.634;2023-06-14T12:08:08;4.70;;;4.20;;
1601;SDS011;794;48.592;9.634;2023-06-14T12:10:41;5.10;;;4.43;;
1601;SDS011;794;48.592;9.634;2023-06-14T12:13:09;6.10;;;4.50;;
1601;SDS011;794;48.592;9.634;2023-06-14T12:15:36;7.60;;;4.53;;
1601;SDS011;794;48.592;9.634;2023-06-14T12:18:05;5.70;;;4.67;;
1601;SDS011;794;48.592;9.634;2023-06-14T12:20:33;4.33;;;3.87;;
1601;SDS011;794;48.592;9.634;2023-06-14T12:23:02;6.50;;;4.63;;
1601;SDS011;794;48.592;9.634;2023-06-14T12:25:32;4.57;;;4.17;;
1601;SDS011;794;48.592;9.634;2023-06-14T12:28:04;5.90;;;4.47;;
1601;SDS011;794;48.592;9.634;2023-06-14T12:30:32;4.47;;;4.07;;
1601;SDS011;794;48.592;9.634;2023-06-14T12:32:59;7.30;;;3.90;;
1601;SDS011;794;48.592;9.634;2023-06-14T12:35:27;6.13;;;5.17;;
1601;SDS011;794;48.592;9.634;2023-06-14T12:37:57;4.90;;;4.50;;
1601;SDS011;794;48.592;9.634;2023-06-14T12:40:25;7.63;;;5.10;;
1601;SDS011;794;48.592;9.634;2023-06-14T12:42:53;5.40;;;4.90;;
1601;SDS011;794;48.592;9.634;2023-06-14T12:45:20;4.13;;;3.80;;
1601;SDS011;794;48.592;9.634;2023-06-14T12:47:48;4.37;;;3.57;;
1601;SDS011;794;48.592;9.634;2023-06-14T12:50:15;5.33;;;4.67;;
1601;SDS011;794;48.592;9.634;2023-06-14T12:52:42;5.73;;;4.37;;
1601;SDS011;794;48.592;9.634;2023-06-14T12:55:09;11.57;;;4.30;;
1601;SDS011;794;48.592;9.634;2023-06-14T12:57:36;7.53;;;4.93;;
1601;SDS011;794;48.592;9.634;2023-06-14T13:00:05;6.07;;;4.37;;
1601;SDS011;794;48.592;9.634;2023-06-14T13:02:33;6.07;;;3.53;;
1601;SDS011;794;48.592;9.634;2023-06-14T13:05:00;5.40;;;4.30;;
1601;SDS011;794;48.592;9.634;2023-06-14T13:07:28;7.70;;;4.37;;
1601;SDS011;794;48.592;9.634;2023-06-14T13:09:55;5.23;;;4.67;;
1601;SDS011;794;48.592;9.634;2023-06-14T13:12:22;5.10;;;4.60;;
1601;SDS011;794;48.592;9.634;2023-06-14T13:14:50;6.37;;;4.10;;
1601;SDS011;794;48.592;9.634;2023-06-14T13:17:18;4.83;;;4.00;;
1601;SDS011;794;48.592;9.634;2023-06-14T13:19:45;4.50;;;3.67;;
1601;SDS011;794;48.592;9.634;2023-06-14T13:22:12;5.03;;;4.20;;
1601;SDS011;794;48.592;9.634;2023-06-14T13:24:39;5.27;;;4.87;;
1601;SDS011;794;48.592;9.634;2023-06-14T13:27:06;5.30;;;4.80;;
1601;SDS011;794;48.592;9.634;2023-06-14T13:29:33;4.83;;;4.43;;
1601;SDS011;794;48.592;9.634;2023-06-14T13:32:00;7.70;;;4.60;;
1601;SDS011;794;48.592;9.634;2023-06-14T13:34:29;4.60;;;4.03;;
1601;SDS011;794;48.592;9.634;2023-06-14T13:36:56;4.50;;;4.10;;
1601;SDS011;794;48.592;9.634;2023-06-14T13:39:25;5.33;;;4.77;;
1601;SDS011;794;48.592;9.634;2023-06-14T13:41:52;4.40;;;4.00;;
1601;SDS011;794;48.592;9.634;2023-06-14T13:44:18;5.83;;;4.53;;
1601;SDS011;794;48.592;9.634;2023-06-14T13:46:46;7.07;;;4.10;;
1601;SDS011;794;48.592;9.634;2023-06-14T13:49:13;4.73;;;4.33;;
1601;SDS011;794;48.592;9.634;2023-06-14T13:51:41;5.73;;;4.70;;
1601;SDS011;794;48.592;9.634;2023-06-14T13:54:08;6.83;;;4.50;;
1601;SDS011;794;48.592;9.634;2023-06-14T13:56:35;5.97;;;4.47;;
1601;SDS011;794;48.592;9.634;2023-06-14T13:59:03;6.50;;;4.07;;
1601;SDS011;794;48.592;9.634;2023-06-14T14:01:29;4.57;;;4.20;;
1601;SDS011;794;48.592;9.634;2023-06-14T14:03:56;5.33;;;4.67;;
1601;SDS011;794;48.592;9.634;2023-06-14T14:06:23;5.23;;;4.40;;
1601;SDS011;794;48.592;9.634;2023-06-14T14:08:52;8.63;;;3.80;;
1601;SDS011;794;48.592;9.634;2023-06-14T14:11:19;5.57;;;4.07;;
1601;SDS011;794;48.592;9.634;2023-06-14T14:13:46;5.07;;;4.63;;
1601;SDS011;794;48.592;9.634;2023-06-14T14:16:12;5.17;;;4.67;;
1601;SDS011;794;48.592;9.634;2023-06-14T14:18:39;5.00;;;3.80;;
1601;SDS011;794;48.592;9.634;2023-06-14T14:21:07;6.10;;;4.27;;
1601;SDS011;794;48.592;9.634;2023-06-14T14:23:34;5.67;;;4.47;;
1601;SDS011;794;48.592;9.634;2023-06-14T14:26:02;8.17;;;4.17;;
1601;SDS011;794;48.592;9.634;2023-06-14T14:28:29;4.67;;;4.27;;
1601;SDS011;794;48.592;9.634;2023-06-14T14:30:57;4.53;;;4.13;;
1601;SDS011;794;48.592;9.634;2023-06-14T14:33:24;4.67;;;4.23;;
1601;SDS011;794;48.592;9.634;2023-06-14T14:35:51;6.50;;;4.20;;
1601;SDS011;794;48.592;9.634;2023-06-14T14:38:18;6.13;;;4.93;;
1601;SDS011;794;48.592;9.634;2023-06-14T14:40:45;7.37;;;5.00;;
1601;SDS011;794;48.592;9.634;2023-06-14T14:43:13;4.40;;;4.00;;
1601;SDS011;794;48.592;9.634;2023-06-14T14:45:40;4.93;;;3.90;;
1601;SDS011;794;48.592;9.634;2023-06-14T14:48:07;5.23;;;3.90;;
1601;SDS011;794;48.592;9.634;2023-06-14T14:50:34;6.40;;;3.93;;
1601;SDS011;794;48.592;9.634;2023-06-14T14:53:01;8.53;;;3.80;;
1601;SDS011;794;48.592;9.634;2023-06-14T14:55:28;4.47;;;4.07;;
1601;SDS011;794;48.592;9.634;2023-06-14T14:57:55;5.70;;;4.30;;
1601;SDS011;794;48.592;9.634;2023-06-14T15:00:23;5.53;;;3.97;;
1601;SDS011;794;48.592;9.634;2023-06-14T15:02:50;5.03;;;4.13;;
1601;SDS011;794;48.592;9.634;2023-06-14T15:05:17;6.73;;;3.80;;
1601;SDS011;794;48.592;9.634;2023-06-14T15:07:44;5.40;;;4.57;;
1601;SDS011;794;48.592;9.634;2023-06-14T15:10:11;4.73;;;3.67;;
1601;SDS011;794;48.592;9.634;2023-06-14T15:12:38;4.43;;;4.03;;
1601;SDS011;794;48.592;9.634;2023-06-14T15:15:05;4.83;;;4.33;;
1601;SDS011;794;48.592;9.634;2023-06-14T15:17:35;5.73;;;4.00;;
1601;SDS011;794;48.592;9.634;2023-06-14T15:20:03;7.30;;;4.77;;
1601;SDS011;794;48.592;9.634;2023-06-14T15:22:32;7.60;;;4.83;;
1601;SDS011;794;48.592;9.634;2023-06-14T15:24:58;5.23;;;3.50;;
1601;SDS011;794;48.592;9.634;2023-06-14T15:27:25;4.27;;;3.93;;
1601;SDS011;794;48.592;9.634;2023-06-14T15:29:52;4.53;;;4.10;;
1601;SDS011;794;48.592;9.634;2023-06-14T15:32:19;4.93;;;4.30;;
1601;SDS011;794;48.592;9.634;2023-06-14T15:34:48;4.50;;;4.10;;
1601;SDS011;794;48.592;9.634;2023-06-14T15:37:15;6.50;;;4.70;;
1601;SDS011;794;48.592;9.634;2023-06-14T15:39:42;5.37;;;3.93;;
1601;SDS011;794;48.592;9.634;2023-06-14T15:42:09;3.63;;;3.33;;
1601;SDS011;794;48.592;9.634;2023-06-14T15:44:36;3.87;;;3.57;;
1601;SDS011;794;48.592;9.634;2023-06-14T15:47:03;5.20;;;4.70;;